Aeroporto :
LOGIN :

Iscrizione | Disclaimer

   EN    FR    IT 

 










Sommario :    VFR   VFR Marginale   IFR   IFR Intensivo   IFR Molto Intensivo
Visibilità : 
Base nubi : 
>= 8 km
>= 3000ft
5 / 8 km
1000 / 3000 ft
1500m / 5 km
500 / 1000 ft
800 / 1500m
200 / 500 ft
< 800m
< 200 ft
Simboli :   Temporali  Nebbia  Neve Forte  Precipitazioni Forti  Vento > 20 kt
SIGMETs :   Varie  Temporali  Ghiacco  Turbolenza  Onda orograficha  Ceneri Vulcaniche






- Altitudine del aeroporto : 919 ft
- Codice IATA : IFO


UKLI - Ivano Frankivs'k

ULTIMO METAR :
  • 250700Z 00000MPS CAVOK M01/M02 Q1025 NOSIG

METARs OBSOLETI :
  • 250630Z 00000MPS CAVOK M03/M04 Q1025 NOSIG
  • 250600Z 00000MPS CAVOK M02/M04 Q1025 NOSIG
  • 250530Z 00000MPS CAVOK M02/M03 Q1025
  • 250500Z 00000MPS CAVOK M02/M03 Q1025
  • 250430Z 00000MPS CAVOK M02/M03 Q1025

TAF TAF UKLI
Valido dal 25 a 06 ore il 25 a 15 ore UTC


250504Z 2506/2515 29003G08MPS 9999 SCT033 TX08/2512Z TNM01/2506Z
TEMPO 2506/2508 VRB01MPS 3100 BR



MetMap, La meteo Aeronautica in un colpo d'occhio ! - Copyright ORBIFLY Dicembre 2007 - Disclaimer

ORBIFLY MET'MAP TEAM :

Programmazione e sviluppo : Alexandra Zaïnal
Concezione : Baudouin d'Aumeries
Aiuto per la programmazione : Marc-Olivier Méhu
Supporto tecnico e logistico : Manuel Goepfert
Aiuto per la traduzione : Arnaldo La Scala

Contatto : metmap@orbifly.com




FONTI E CREDITI :

   NOAA